Time;durP1;ratioP1;P1;durP2;ratioP2;P2;SDS_P1;SDS_P2;PMS_P1;PMS_P2;Temp;Humidity;BMP_temperature;BMP_pressure;BME280_temperature;BME280_humidity;BME280_pressure;Samples;Min_cycle;Max_cycle;Signal;HPM_P1;HPM_P2
2022/09/13 00:00:29;;;;;;;;;;;25.30;49.50;24.00;100595.00;;;;5102065;27;19915;-67
2022/09/13 00:03:16;;;;;;;;;;;25.10;49.40;24.00;100596.00;;;;5094708;27;19916;-67
2022/09/13 00:06:13;;;;;;;;;;;25.20;49.40;24.00;100591.00;;;;5107134;27;19912;-67
2022/09/13 00:09:00;;;;;;;;;;;25.20;49.40;24.00;100596.00;;;;5102270;27;19922;-67
2022/09/13 00:11:46;;;;;;;;;;;25.10;49.40;24.00;100594.00;;;;5097217;27;19920;-67
2022/09/13 00:14:32;;;;;;;;;;;25.20;49.40;24.00;100595.00;;;;5102694;27;20371;-67
2022/09/13 00:17:18;;;;;;;;;;;25.20;49.40;24.00;100594.00;;;;5108703;27;19919;-67
2022/09/13 00:20:04;;;;;;;;;;;25.20;49.40;24.00;100577.00;;;;5103740;27;19916;-67
2022/09/13 00:22:50;;;;;;;;;;;25.20;49.40;24.00;100577.00;;;;5091162;27;20391;-67
2022/09/13 00:25:37;;;;;;;;;;;25.20;50.10;24.00;100571.00;;;;5099073;27;19916;-67
2022/09/13 00:28:22;;;;;;;;;;;25.20;49.40;24.00;100564.00;;;;5082946;27;20319;-66
2022/09/13 00:31:08;;;;;;;;;;;25.20;49.50;24.00;100561.00;;;;5098740;27;20422;-67
2022/09/13 00:33:55;;;;;;;;;;;25.20;49.40;24.00;100561.00;;;;5107087;27;19985;-67
2022/09/13 00:36:41;;;;;;;;;;;25.20;49.40;24.00;100563.00;;;;5093414;28;20439;-67
2022/09/13 00:39:27;;;;;;;;;;;25.20;49.40;24.00;100560.00;;;;5105289;27;19916;-67
2022/09/13 00:42:13;;;;;;;;;;;25.20;49.40;24.00;100552.00;;;;5100570;27;19919;-67
2022/09/13 00:45:02;;;;;;;;;;;25.20;49.30;24.00;100553.00;;;;5084908;28;19912;-67
2022/09/13 00:47:49;;;;;;;;;;;25.30;49.40;24.00;100549.00;;;;5119457;27;19968;-67
2022/09/13 00:50:41;;;;;;;;;;;25.30;49.40;24.00;100539.00;;;;5094415;28;19959;-67
2022/09/13 00:53:31;;;;;;;;;;;25.30;49.40;24.00;100536.00;;;;5086678;28;19911;-67
2022/09/13 00:56:23;;;;;;;;;;;25.30;49.40;24.00;100541.00;;;;5090313;28;19915;-67
2022/09/13 00:59:12;;;;;;;;;;;25.10;49.20;24.00;100529.00;;;;5088247;28;19969;-67
2022/09/13 01:01:58;;;;;;;;;;;25.30;49.40;24.00;100536.00;;;;5088010;28;20361;-67
2022/09/13 01:04:44;;;;;;;;;;;25.20;49.30;24.00;100529.00;;;;5101957;28;19922;-67
2022/09/13 01:07:30;;;;;;;;;;;25.20;49.30;24.00;100527.00;;;;5092246;28;19918;-66
2022/09/13 01:10:16;;;;;;;;;;;25.20;49.30;24.00;100528.00;;;;5102758;28;19912;-67
2022/09/13 01:13:10;;;;;;;;;;;25.30;49.40;24.00;100527.00;;;;5093809;28;19912;-67
2022/09/13 01:15:56;;;;;;;;;;;25.30;49.40;24.00;100528.00;;;;5084261;28;20566;-67
2022/09/13 01:18:42;;;;;;;;;;;25.20;49.30;24.00;100540.00;;;;5093121;28;19915;-67
2022/09/13 01:21:52;;;;;;;;;;;25.30;49.40;24.00;100538.00;;;;5096560;28;19912;-67
2022/09/13 01:24:54;;;;;;;;;;;25.30;49.40;24.00;100535.00;;;;5102366;28;20061;-67
2022/09/13 01:28:02;;;;;;;;;;;25.20;49.30;24.00;100527.00;;;;5094698;28;19919;-67
2022/09/13 01:31:09;;;;;;;;;;;25.20;49.30;24.00;100524.00;;;;5095268;28;19916;-67
2022/09/13 01:34:04;;;;;;;;;;;25.20;49.30;24.00;100534.00;;;;5092927;28;19919;-67
2022/09/13 01:36:58;;;;;;;;;;;25.20;49.40;24.00;100531.00;;;;5077857;28;20007;-67
2022/09/13 01:40:08;;;;;;;;;;;25.20;49.40;24.00;100530.00;;;;5082024;28;20353;-67
2022/09/13 01:43:03;;;;;;;;;;;25.20;49.30;24.00;100522.00;;;;5096498;28;19980;-67
2022/09/13 01:46:03;;;;;;;;;;;25.20;49.40;24.00;100530.00;;;;5085444;28;20434;-68
2022/09/13 01:49:15;;;;;;;;;;;25.20;49.30;24.00;100526.00;;;;5084904;28;19916;-67
2022/09/13 01:52:04;;;;;;;;;;;25.20;49.30;24.00;100521.00;;;;5095874;28;19911;-67
2022/09/13 01:55:05;;;;;;;;;;;25.20;49.30;24.00;100521.00;;;;5096220;28;19921;-67
2022/09/13 01:58:15;;;;;;;;;;;25.30;49.40;24.00;100524.00;;;;5102344;28;20095;-67
2022/09/13 02:01:17;;;;;;;;;;;25.20;49.40;24.00;100522.00;;;;5096050;28;19915;-67
2022/09/13 02:04:04;;;;;;;;;;;25.20;49.40;24.00;100516.00;;;;5083350;28;20490;-67
2022/09/13 02:06:58;;;;;;;;;;;25.20;49.40;24.00;100517.00;;;;5099982;28;19911;-67
2022/09/13 02:09:47;;;;;;;;;;;25.20;49.40;24.00;100499.00;;;;5093068;28;19919;-66
2022/09/13 02:12:33;;;;;;;;;;;25.20;49.40;24.00;100502.00;;;;5081524;28;20281;-67
2022/09/13 02:15:33;;;;;;;;;;;25.20;49.40;24.00;100509.00;;;;5081876;27;19915;-66
2022/09/13 02:18:23;;;;;;;;;;;25.20;49.40;24.00;100497.00;;;;5078335;28;20331;-67
2022/09/13 02:21:14;;;;;;;;;;;25.20;49.40;24.00;100507.00;;;;5099405;27;19919;-67
2022/09/13 02:24:12;;;;;;;;;;;25.20;49.40;24.00;100510.00;;;;5086813;28;20357;-67
2022/09/13 02:27:18;;;;;;;;;;;25.20;49.40;24.00;100518.00;;;;5087592;28;19947;-67
2022/09/13 02:30:06;;;;;;;;;;;25.20;49.40;24.00;100522.00;;;;5099297;27;19922;-67
2022/09/13 02:33:10;;;;;;;;;;;25.20;49.40;24.00;100523.00;;;;5070269;28;19912;-67
2022/09/13 02:36:11;;;;;;;;;;;25.20;49.30;24.00;100529.00;;;;5083996;28;19973;-67
2022/09/13 02:39:06;;;;;;;;;;;25.20;49.40;24.00;100528.00;;;;5095742;27;19920;-67
2022/09/13 02:41:57;;;;;;;;;;;25.20;49.40;24.00;100521.00;;;;5087076;28;19915;-66
2022/09/13 02:44:49;;;;;;;;;;;25.20;49.40;24.00;100527.00;;;;5107048;27;19912;-67
2022/09/13 02:47:56;;;;;;;;;;;25.20;49.40;24.00;100519.00;;;;5086285;28;20376;-67
2022/09/13 02:50:47;;;;;;;;;;;25.20;49.40;24.00;100519.00;;;;5101129;27;20318;-66
2022/09/13 02:53:41;;;;;;;;;;;25.20;49.50;23.90;100516.00;;;;5095589;27;19911;-66
2022/09/13 02:56:48;;;;;;;;;;;25.20;49.40;24.00;100513.00;;;;5086746;28;20277;-67
2022/09/13 02:59:35;;;;;;;;;;;25.20;49.50;23.90;100520.00;;;;5078390;27;20000;-66
2022/09/13 03:02:22;;;;;;;;;;;25.20;49.40;23.90;100523.00;;;;5102114;27;19915;-67
2022/09/13 03:05:08;;;;;;;;;;;25.20;49.50;23.90;100523.00;;;;5086829;28;19916;-67
2022/09/13 03:07:54;;;;;;;;;;;25.20;49.50;23.90;100522.00;;;;5098792;28;19998;-67
2022/09/13 03:10:55;;;;;;;;;;;25.20;49.50;23.90;100517.00;;;;5096675;28;19916;-67
2022/09/13 03:14:03;;;;;;;;;;;25.20;49.50;23.90;100508.00;;;;5111153;27;19919;-67
2022/09/13 03:16:52;;;;;;;;;;;25.20;49.50;23.90;100509.00;;;;5098362;27;19916;-67
2022/09/13 03:19:54;;;;;;;;;;;25.20;49.50;23.90;100500.00;;;;5102595;28;19916;-67
2022/09/13 03:22:52;;;;;;;;;;;25.20;49.50;23.90;100492.00;;;;5086719;28;19923;-67
2022/09/13 03:25:56;;;;;;;;;;;25.20;49.50;23.90;100495.00;;;;5086147;28;20268;-67
2022/09/13 03:29:07;;;;;;;;;;;25.20;49.50;23.90;100502.00;;;;5077096;27;20374;-67
2022/09/13 03:32:04;;;;;;;;;;;25.20;49.50;23.90;100501.00;;;;5096280;27;20365;-67
2022/09/13 03:34:58;;;;;;;;;;;25.10;49.40;23.90;100495.00;;;;5079597;28;19916;-67
2022/09/13 03:37:48;;;;;;;;;;;25.10;49.40;23.90;100498.00;;;;5098858;28;19974;-67
2022/09/13 03:40:43;;;;;;;;;;;25.20;49.50;23.90;100504.00;;;;5098292;28;20311;-67
2022/09/13 03:43:34;;;;;;;;;;;25.20;49.50;23.90;100498.00;;;;5101336;28;19927;-67
2022/09/13 03:46:21;;;;;;;;;;;25.10;49.40;23.90;100497.00;;;;5089451;27;19912;-67
2022/09/13 03:49:17;;;;;;;;;;;25.10;49.40;23.90;100497.00;;;;5081142;28;19916;-67
2022/09/13 03:52:03;;;;;;;;;;;25.10;49.40;23.90;100510.00;;;;5112927;27;20356;-67
2022/09/13 03:54:49;;;;;;;;;;;25.10;49.40;23.90;100506.00;;;;5085172;27;19920;-67
2022/09/13 03:57:35;;;;;;;;;;;25.20;49.50;23.90;100508.00;;;;5080558;27;19976;-67
2022/09/13 04:00:21;;;;;;;;;;;25.20;49.50;23.90;100503.00;;;;5087273;28;19995;-67
2022/09/13 04:03:08;;;;;;;;;;;25.10;49.40;23.90;100507.00;;;;5098286;27;19918;-67
2022/09/13 04:05:54;;;;;;;;;;;25.20;49.50;23.90;100508.00;;;;5098837;28;19937;-67
2022/09/13 04:08:40;;;;;;;;;;;25.10;49.40;23.90;100510.00;;;;5093770;27;20299;-66
2022/09/13 04:11:26;;;;;;;;;;;25.10;49.40;23.90;100513.00;;;;5097466;27;19915;-67
2022/09/13 04:14:12;;;;;;;;;;;25.10;49.40;23.90;100514.00;;;;5093968;27;19912;-67
2022/09/13 04:16:58;;;;;;;;;;;25.10;49.40;23.90;100511.00;;;;5101032;27;19919;-67
2022/09/13 04:19:45;;;;;;;;;;;25.10;49.40;23.90;100518.00;;;;5097652;27;19923;-67
2022/09/13 04:22:32;;;;;;;;;;;25.20;49.50;23.90;100504.00;;;;5098283;27;19958;-67
2022/09/13 04:25:19;;;;;;;;;;;25.10;49.40;23.90;100504.00;;;;5107654;27;19965;-67
2022/09/13 04:28:05;;;;;;;;;;;25.20;49.50;23.90;100500.00;;;;5097217;28;19920;-67
2022/09/13 04:30:51;;;;;;;;;;;25.10;49.40;23.90;100510.00;;;;5096244;27;20407;-67
2022/09/13 04:33:37;;;;;;;;;;;25.10;49.40;23.90;100503.00;;;;5101314;27;19911;-66
2022/09/13 04:36:23;;;;;;;;;;;25.10;49.40;23.90;100496.00;;;;5101970;28;19923;-67
2022/09/13 04:39:10;;;;;;;;;;;25.00;49.40;23.90;100498.00;;;;5099882;27;19923;-67
2022/09/13 04:41:56;;;;;;;;;;;25.20;49.50;23.90;100499.00;;;;5087452;28;19915;-67
2022/09/13 04:44:43;;;;;;;;;;;25.20;49.50;23.90;100507.00;;;;5103011;27;19912;-67
2022/09/13 04:47:29;;;;;;;;;;;25.20;49.50;23.90;100507.00;;;;5105277;27;19911;-67
2022/09/13 04:50:15;;;;;;;;;;;25.10;49.40;23.90;100507.00;;;;5099071;28;20388;-67
2022/09/13 04:53:01;;;;;;;;;;;25.10;49.40;23.90;100504.00;;;;5103551;27;20349;-66
2022/09/13 04:55:47;;;;;;;;;;;25.10;49.40;23.90;100512.00;;;;5101952;28;19996;-67
2022/09/13 04:58:33;;;;;;;;;;;25.20;49.50;23.90;100510.00;;;;5100881;27;20357;-67
2022/09/13 05:01:19;;;;;;;;;;;25.20;49.50;23.90;100507.00;;;;5099319;28;19912;-67
2022/09/13 05:04:06;;;;;;;;;;;25.10;49.40;23.90;100505.00;;;;5094440;28;19915;-67
2022/09/13 05:06:52;;;;;;;;;;;25.10;49.40;23.90;100505.00;;;;5093132;28;20461;-67
2022/09/13 05:09:38;;;;;;;;;;;25.10;49.40;23.90;100506.00;;;;5096347;28;20448;-67
2022/09/13 05:12:24;;;;;;;;;;;25.10;49.40;23.90;100508.00;;;;5101623;28;19998;-67
2022/09/13 05:15:11;;;;;;;;;;;25.10;49.40;23.90;100511.00;;;;5104108;28;20258;-67
2022/09/13 05:17:57;;;;;;;;;;;25.20;49.50;23.90;100517.00;;;;5101016;28;20415;-67
2022/09/13 05:20:43;;;;;;;;;;;25.20;49.50;23.90;100519.00;;;;5102604;28;20273;-66
2022/09/13 05:23:29;;;;;;;;;;;25.10;49.40;23.90;100510.00;;;;5099830;28;19919;-66
2022/09/13 05:26:15;;;;;;;;;;;25.10;49.40;23.90;100520.00;;;;5101692;28;19919;-67
2022/09/13 05:29:02;;;;;;;;;;;25.10;49.40;23.90;100510.00;;;;5100069;28;19916;-67
2022/09/13 05:31:48;;;;;;;;;;;25.20;49.50;23.90;100514.00;;;;5082332;28;19916;-67
2022/09/13 05:34:34;;;;;;;;;;;25.20;49.50;23.90;100513.00;;;;5100286;28;19911;-67
2022/09/13 05:37:20;;;;;;;;;;;25.10;49.40;23.90;100513.00;;;;5099450;28;20018;-67
2022/09/13 05:40:06;;;;;;;;;;;25.10;49.40;23.90;100525.00;;;;5096038;28;19973;-67
2022/09/13 05:42:52;;;;;;;;;;;25.10;49.50;23.90;100517.00;;;;5095116;28;20411;-67
2022/09/13 05:46:04;;;;;;;;;;;25.10;49.50;23.90;100525.00;;;;5095798;28;19951;-67
2022/09/13 05:48:50;;;;;;;;;;;25.10;49.60;23.90;100521.00;;;;5102165;27;19912;-67
2022/09/13 05:51:36;;;;;;;;;;;25.10;49.50;23.90;100520.00;;;;5107278;27;19912;-66
2022/09/13 05:54:22;;;;;;;;;;;25.10;49.60;23.90;100518.00;;;;5103179;27;19912;-66
2022/09/13 05:57:08;;;;;;;;;;;25.20;49.60;23.90;100513.00;;;;5084306;28;19938;-66
2022/09/13 05:59:54;;;;;;;;;;;25.10;49.60;23.90;100519.00;;;;5098118;28;20285;-67
2022/09/13 06:02:40;;;;;;;;;;;25.10;50.30;23.90;100523.00;;;;5096771;27;20349;-67
2022/09/13 06:05:26;;;;;;;;;;;25.10;49.60;23.90;100519.00;;;;5104888;27;19922;-66
2022/09/13 06:08:12;;;;;;;;;;;25.20;49.60;23.90;100518.00;;;;5097566;27;20004;-67
2022/09/13 06:11:03;;;;;;;;;;;25.10;49.50;23.90;100517.00;;;;5099729;27;19912;-67
2022/09/13 06:13:49;;;;;;;;;;;25.20;49.60;23.90;100529.00;;;;5100657;27;20024;-67
2022/09/13 06:16:35;;;;;;;;;;;25.10;49.60;23.90;100533.00;;;;5090414;27;19911;-67
2022/09/13 06:19:21;;;;;;;;;;;25.10;49.50;23.90;100534.00;;;;5102108;27;19916;-66
2022/09/13 06:22:07;;;;;;;;;;;25.20;49.60;23.90;100528.00;;;;5100303;27;19940;-67
2022/09/13 06:24:53;;;;;;;;;;;25.20;49.60;23.90;100523.00;;;;5082148;28;19962;-67
2022/09/13 06:27:40;;;;;;;;;;;25.10;49.50;23.90;100525.00;;;;5101085;27;19911;-66
2022/09/13 06:30:26;;;;;;;;;;;25.10;49.50;23.90;100519.00;;;;5102162;27;20010;-67
2022/09/13 06:33:12;;;;;;;;;;;25.10;49.50;23.90;100528.00;;;;5092015;27;19927;-67
2022/09/13 06:35:59;;;;;;;;;;;25.10;49.60;23.90;100526.00;;;;5099321;27;19995;-66
2022/09/13 06:38:46;;;;;;;;;;;25.10;49.50;23.90;100529.00;;;;5083514;28;20376;-67
2022/09/13 06:41:32;;;;;;;;;;;25.10;49.50;23.90;100522.00;;;;5105986;27;19915;-66
2022/09/13 06:44:18;;;;;;;;;;;25.10;49.50;23.90;100518.00;;;;5089859;27;19915;-67
2022/09/13 06:47:04;;;;;;;;;;;25.10;49.50;23.90;100522.00;;;;5100860;27;20265;-66
2022/09/13 06:49:50;;;;;;;;;;;25.10;49.60;23.90;100525.00;;;;5099328;27;19923;-67
2022/09/13 06:52:36;;;;;;;;;;;25.10;49.50;23.90;100526.00;;;;5093490;27;19912;-67
2022/09/13 06:55:22;;;;;;;;;;;25.10;49.50;23.90;100522.00;;;;5101465;27;19916;-67
2022/09/13 06:58:08;;;;;;;;;;;25.10;49.50;23.90;100530.00;;;;5097218;27;20008;-67
2022/09/13 07:01:03;;;;;;;;;;;25.10;49.50;23.90;100531.00;;;;5099639;27;19972;-67
2022/09/13 07:03:53;;;;;;;;;;;25.10;49.50;23.90;100528.00;;;;5105125;27;19915;-66
2022/09/13 07:06:41;;;;;;;;;;;25.10;49.50;23.90;100543.00;;;;5097516;27;19988;-67
2022/09/13 07:09:27;;;;;;;;;;;25.20;49.60;23.90;100546.00;;;;5113273;27;19912;-67
2022/09/13 07:12:13;;;;;;;;;;;25.10;49.50;23.90;100541.00;;;;5091911;27;19920;-67
2022/09/13 07:14:59;;;;;;;;;;;25.20;49.50;23.90;100540.00;;;;5105573;27;19920;-67
2022/09/13 07:17:45;;;;;;;;;;;25.20;49.50;23.90;100539.00;;;;5104461;27;19972;-66
2022/09/13 07:20:31;;;;;;;;;;;25.20;49.60;23.90;100541.00;;;;5097498;27;19960;-66
2022/09/13 07:23:17;;;;;;;;;;;25.20;49.50;23.90;100549.00;;;;5099491;27;20462;-66
2022/09/13 07:26:04;;;;;;;;;;;25.20;49.60;23.90;100545.00;;;;5098285;27;19918;-66
2022/09/13 07:28:52;;;;;;;;;;;25.20;49.50;23.90;100548.00;;;;5103080;27;20357;-67
2022/09/13 07:31:39;;;;;;;;;;;25.20;49.50;23.90;100550.00;;;;5083171;27;19911;-66
2022/09/13 07:34:25;;;;;;;;;;;25.20;49.50;23.90;100553.00;;;;5100283;28;20010;-67
2022/09/13 07:37:11;;;;;;;;;;;25.20;49.50;23.90;100562.00;;;;5100818;28;19998;-67
2022/09/13 07:39:57;;;;;;;;;;;25.20;49.50;23.90;100549.00;;;;5091084;28;19949;-67
2022/09/13 07:42:43;;;;;;;;;;;25.20;49.50;23.90;100559.00;;;;5099481;28;19912;-67
2022/09/13 07:45:29;;;;;;;;;;;25.10;49.50;23.90;100565.00;;;;5093367;27;20567;-67
2022/09/13 07:48:15;;;;;;;;;;;25.20;49.50;23.90;100560.00;;;;5101052;27;19915;-66
2022/09/13 07:51:00;;;;;;;;;;;25.20;49.50;23.90;100555.00;;;;5099885;27;19919;-67
2022/09/13 07:53:47;;;;;;;;;;;25.20;49.60;23.90;100555.00;;;;5095570;27;19912;-66
2022/09/13 07:56:35;;;;;;;;;;;25.20;49.50;23.90;100558.00;;;;5083635;28;19916;-66
2022/09/13 07:59:20;;;;;;;;;;;25.20;49.60;23.90;100558.00;;;;5103811;27;20007;-67
2022/09/13 08:02:07;;;;;;;;;;;25.20;49.60;23.90;100570.00;;;;5098656;27;19919;-66
2022/09/13 08:04:53;;;;;;;;;;;25.20;49.50;23.90;100566.00;;;;5083945;28;19955;-67
2022/09/13 08:07:39;;;;;;;;;;;25.10;49.50;23.90;100565.00;;;;5102009;27;20613;-66
2022/09/13 08:10:25;;;;;;;;;;;25.20;49.50;23.90;100566.00;;;;5105101;27;20284;-66
2022/09/13 08:13:11;;;;;;;;;;;25.20;49.50;23.90;100571.00;;;;5100364;27;19977;-66
2022/09/13 08:16:01;;;;;;;;;;;25.20;49.50;23.90;100568.00;;;;5099437;27;19912;-67
2022/09/13 08:18:50;;;;;;;;;;;25.20;49.50;23.90;100575.00;;;;5097089;28;19985;-66
2022/09/13 08:21:37;;;;;;;;;;;25.20;50.20;23.90;100575.00;;;;5097573;27;19923;-66
2022/09/13 08:24:23;;;;;;;;;;;25.20;49.60;23.90;100571.00;;;;5112518;27;20368;-66
2022/09/13 08:27:12;;;;;;;;;;;25.20;49.50;23.90;100577.00;;;;5093615;28;19919;-66
2022/09/13 08:29:58;;;;;;;;;;;25.20;49.50;23.90;100576.00;;;;5103037;27;19912;-67
2022/09/13 08:32:44;;;;;;;;;;;25.20;49.50;23.90;100571.00;;;;5096887;27;20404;-66
2022/09/13 08:35:30;;;;;;;;;;;25.20;49.60;23.90;100582.00;;;;5096766;27;19981;-66
2022/09/13 08:38:17;;;;;;;;;;;25.30;49.60;23.90;100592.00;;;;5081726;28;20327;-66
2022/09/13 08:41:24;;;;;;;;;;;25.20;49.60;23.90;100580.00;;;;5093058;27;19918;-67
2022/09/13 08:44:32;;;;;;;;;;;25.20;49.60;23.90;100591.00;;;;5096253;28;19919;-66
2022/09/13 08:47:33;;;;;;;;;;;25.20;49.60;23.90;100591.00;;;;5089454;28;19965;-67
2022/09/13 08:50:30;;;;;;;;;;;25.20;49.60;23.90;100578.00;;;;5092512;28;19941;-66
2022/09/13 08:53:23;;;;;;;;;;;25.20;49.60;23.90;100580.00;;;;5075769;28;20262;-66
2022/09/13 08:56:16;;;;;;;;;;;25.20;49.60;23.90;100579.00;;;;5082679;28;20259;-66
2022/09/13 08:59:23;;;;;;;;;;;25.20;49.60;23.90;100590.00;;;;5076739;28;19919;-67
2022/09/13 09:02:31;;;;;;;;;;;25.20;49.60;23.90;100594.00;;;;5082543;28;19911;-66
2022/09/13 09:05:24;;;;;;;;;;;25.20;49.60;23.90;100594.00;;;;5080148;28;19923;-66
2022/09/13 09:08:19;;;;;;;;;;;25.20;49.60;23.90;100590.00;;;;5089170;28;20174;-66
2022/09/13 09:11:09;;;;;;;;;;;25.20;49.70;23.90;100596.00;;;;5084463;28;20332;-66
2022/09/13 09:14:07;;;;;;;;;;;25.20;49.60;23.90;100597.00;;;;5082563;28;19980;-66
2022/09/13 09:16:56;;;;;;;;;;;25.20;49.60;23.90;100602.00;;;;5086091;28;19919;-66
2022/09/13 09:19:46;;;;;;;;;;;25.20;49.60;23.90;100603.00;;;;5095737;28;19951;-67
2022/09/13 09:22:33;;;;;;;;;;;25.20;49.60;23.90;100604.00;;;;5083817;28;19911;-66
2022/09/13 09:25:21;;;;;;;;;;;25.20;49.60;24.00;100599.00;;;;5102854;27;19915;-67
2022/09/13 09:28:14;;;;;;;;;;;25.20;49.60;23.90;100604.00;;;;5094438;28;19915;-66
2022/09/13 09:31:13;;;;;;;;;;;25.20;49.60;24.00;100600.00;;;;5105577;27;20013;-67
2022/09/13 09:34:25;;;;;;;;;;;25.20;49.60;24.00;100598.00;;;;5097114;27;19912;-67
2022/09/13 09:37:16;;;;;;;;;;;25.30;49.70;24.00;100596.00;;;;5098252;27;19919;-66
2022/09/13 09:40:06;;;;;;;;;;;25.30;50.40;24.00;100592.00;;;;5098131;27;19916;-67
2022/09/13 09:42:53;;;;;;;;;;;25.20;49.60;24.00;100582.00;;;;5081749;28;19947;-67
2022/09/13 09:45:40;;;;;;;;;;;25.30;49.70;24.00;100586.00;;;;5104541;27;20322;-66
2022/09/13 09:48:28;;;;;;;;;;;25.30;49.70;24.00;100588.00;;;;5088135;28;19915;-66
2022/09/13 09:51:14;;;;;;;;;;;25.20;49.70;24.00;100589.00;;;;5087572;28;19930;-67
2022/09/13 09:54:01;;;;;;;;;;;25.30;49.70;24.00;100591.00;;;;5098144;27;19966;-67
2022/09/13 09:56:52;;;;;;;;;;;25.20;49.60;24.00;100586.00;;;;5100526;27;19916;-66
2022/09/13 09:59:38;;;;;;;;;;;25.20;49.70;24.00;100588.00;;;;5098149;27;19930;-67
2022/09/13 10:02:24;;;;;;;;;;;25.30;49.70;24.00;100591.00;;;;5088946;27;19920;-67
2022/09/13 10:05:13;;;;;;;;;;;25.30;49.70;24.00;100594.00;;;;5110179;27;20169;-67
2022/09/13 10:08:01;;;;;;;;;;;25.30;49.80;24.00;100596.00;;;;5097645;27;19916;-66
2022/09/13 10:10:52;;;;;;;;;;;25.30;49.70;24.00;100582.00;;;;5085435;27;20255;-66
2022/09/13 10:13:39;;;;;;;;;;;25.30;49.70;24.00;100577.00;;;;5092544;27;19923;-66
2022/09/13 10:16:26;;;;;;;;;;;25.30;49.70;24.00;100581.00;;;;5084709;27;19915;-66
2022/09/13 10:19:23;;;;;;;;;;;25.30;49.70;24.00;100587.00;;;;5103527;27;19986;-66
2022/09/13 10:22:12;;;;;;;;;;;25.30;49.70;24.00;100579.00;;;;5076610;28;19920;-66
2022/09/13 10:25:21;;;;;;;;;;;25.30;49.70;24.00;100586.00;;;;5100065;27;20360;-66
2022/09/13 10:28:11;;;;;;;;;;;25.30;49.70;24.00;100573.00;;;;5092985;27;19923;-67
2022/09/13 10:31:03;;;;;;;;;;;25.30;49.70;24.00;100569.00;;;;5098023;27;19995;-66
2022/09/13 10:33:48;;;;;;;;;;;25.30;49.70;24.00;100574.00;;;;5098572;27;19919;-67
2022/09/13 10:36:34;;;;;;;;;;;25.20;49.70;24.00;100579.00;;;;5107261;27;19919;-67
2022/09/13 10:39:21;;;;;;;;;;;25.20;49.70;24.00;100563.00;;;;5087418;27;19919;-66
2022/09/13 10:42:08;;;;;;;;;;;25.30;49.70;24.00;100569.00;;;;5104785;27;19968;-67
2022/09/13 10:45:02;;;;;;;;;;;25.30;49.80;24.00;100570.00;;;;5101711;27;19912;-67
2022/09/13 10:47:49;;;;;;;;;;;25.30;49.70;24.00;100572.00;;;;5090142;27;20014;-67
2022/09/13 10:50:35;;;;;;;;;;;25.30;49.70;24.00;100568.00;;;;5087869;27;19915;-66
2022/09/13 10:53:33;;;;;;;;;;;25.30;49.70;24.00;100567.00;;;;5104786;27;19916;-67
2022/09/13 10:56:25;;;;;;;;;;;25.30;49.70;24.00;100572.00;;;;5102770;27;20001;-67
2022/09/13 10:59:28;;;;;;;;;;;25.30;49.70;24.00;100573.00;;;;5094040;28;20003;-67
2022/09/13 11:02:36;;;;;;;;;;;25.40;49.70;24.00;100573.00;;;;5079283;28;19912;-67
2022/09/13 11:05:28;;;;;;;;;;;25.40;49.70;24.00;100574.00;;;;5100575;27;19981;-67
2022/09/13 11:08:20;;;;;;;;;;;25.40;49.70;24.00;100575.00;;;;5102800;28;19912;-67
2022/09/13 11:11:28;;;;;;;;;;;25.30;49.60;24.00;100578.00;;;;5084546;28;19922;-67
2022/09/13 11:14:20;;;;;;;;;;;25.30;49.70;24.00;100578.00;;;;5101791;27;19955;-67
2022/09/13 11:17:39;;;;;;;;;;;25.30;49.70;24.00;100576.00;;;;5085915;28;20400;-67
2022/09/13 11:20:29;;;;;;;;;;;25.30;49.60;24.00;100583.00;;;;5103517;27;20022;-67
2022/09/13 11:23:33;;;;;;;;;;;25.40;49.70;24.00;100578.00;;;;5106665;27;19923;-67
2022/09/13 11:26:23;;;;;;;;;;;25.40;49.70;24.00;100573.00;;;;5105483;27;20315;-67
2022/09/13 11:29:14;;;;;;;;;;;25.40;49.80;24.00;100575.00;;;;5082991;28;19950;-67
2022/09/13 11:32:46;;;;;;;;;;;25.30;49.60;24.00;100569.00;;;;5102963;27;19918;-67
2022/09/13 11:35:45;;;;;;;;;;;25.40;49.70;24.00;100563.00;;;;5102818;27;19974;-67
2022/09/13 11:38:45;;;;;;;;;;;25.40;49.70;24.00;100569.00;;;;5088610;27;19919;-67
2022/09/13 11:42:02;;;;;;;;;;;25.40;49.70;24.00;100566.00;;;;5100905;27;19923;-67
2022/09/13 11:45:00;;;;;;;;;;;25.40;49.70;24.00;100569.00;;;;5101727;27;20053;-66
2022/09/13 11:47:59;;;;;;;;;;;25.30;49.70;24.00;100570.00;;;;5102047;27;19911;-66
2022/09/13 11:51:18;;;;;;;;;;;25.40;49.70;24.00;100567.00;;;;5097550;28;19915;-67
2022/09/13 11:54:26;;;;;;;;;;;25.30;49.70;24.00;100557.00;;;;5100256;27;19916;-67
2022/09/13 11:57:24;;;;;;;;;;;25.50;49.80;24.00;100554.00;;;;5103970;27;20372;-67
2022/09/13 12:00:39;;;;;;;;;;;25.40;49.80;24.00;100549.00;;;;5079328;28;19920;-67
2022/09/13 12:03:29;;;;;;;;;;;25.30;49.70;24.00;100549.00;;;;5077864;28;20018;-67
2022/09/13 12:06:21;;;;;;;;;;;25.40;49.80;24.00;100548.00;;;;5111908;27;19916;-67
2022/09/13 12:09:21;;;;;;;;;;;25.30;49.70;24.00;100544.00;;;;5092552;28;19916;-67
2022/09/13 12:12:10;;;;;;;;;;;25.40;49.80;24.00;100542.00;;;;5093880;28;19957;-67
2022/09/13 12:15:01;;;;;;;;;;;25.40;50.40;24.00;100539.00;;;;5072538;28;19911;-67
2022/09/13 12:17:50;;;;;;;;;;;25.40;49.80;24.00;100533.00;;;;5080574;28;19911;-66
2022/09/13 12:20:47;;;;;;;;;;;25.40;49.80;24.00;100530.00;;;;5073648;28;19912;-67
2022/09/13 12:23:40;;;;;;;;;;;25.40;49.80;24.00;100533.00;;;;5077238;28;19919;-67
2022/09/13 12:26:36;;;;;;;;;;;25.50;49.80;24.00;100527.00;;;;5096791;27;19920;-67
2022/09/13 12:29:35;;;;;;;;;;;25.40;49.80;24.00;100515.00;;;;5083594;28;19918;-66
2022/09/13 12:32:22;;;;;;;;;;;25.40;49.80;24.00;100511.00;;;;5110868;27;19987;-66
2022/09/13 12:35:16;;;;;;;;;;;25.30;49.70;24.10;100515.00;;;;5078368;28;19912;-67
2022/09/13 12:38:05;;;;;;;;;;;25.40;49.80;24.10;100516.00;;;;5101157;28;20319;-67
2022/09/13 12:40:53;;;;;;;;;;;25.40;49.70;24.10;100509.00;;;;5098272;27;19912;-66
2022/09/13 12:43:52;;;;;;;;;;;25.50;49.80;24.10;100511.00;;;;5092689;27;19919;-67
2022/09/13 12:46:43;;;;;;;;;;;25.50;49.70;24.10;100503.00;;;;5112033;27;19935;-66
2022/09/13 12:49:32;;;;;;;;;;;25.50;49.70;24.10;100502.00;;;;5092296;28;19916;-66
2022/09/13 12:52:36;;;;;;;;;;;25.50;49.70;24.10;100500.00;;;;5093855;28;20390;-66
2022/09/13 12:55:31;;;;;;;;;;;25.50;49.70;24.10;100491.00;;;;5110036;27;19935;-67
2022/09/13 12:58:20;;;;;;;;;;;25.50;49.70;24.10;100490.00;;;;5100467;28;19916;-66
2022/09/13 13:01:13;;;;;;;;;;;25.50;49.70;24.10;100485.00;;;;5094189;28;19927;-66
2022/09/13 13:04:07;;;;;;;;;;;25.50;49.70;24.10;100496.00;;;;5089746;28;20286;-66
2022/09/13 13:06:56;;;;;;;;;;;25.50;49.70;24.10;100492.00;;;;5086733;28;19916;-67
2022/09/13 13:09:52;;;;;;;;;;;25.50;49.70;24.10;100505.00;;;;5080536;28;19919;-66
2022/09/13 13:12:38;;;;;;;;;;;25.50;49.70;24.10;100495.00;;;;5100266;28;20300;-67
2022/09/13 13:15:24;;;;;;;;;;;25.50;49.70;24.10;100495.00;;;;5091413;28;19922;-66
2022/09/13 13:18:21;;;;;;;;;;;25.50;49.70;24.10;100497.00;;;;5099612;28;20006;-66
2022/09/13 13:21:27;;;;;;;;;;;25.50;49.70;24.10;100487.00;;;;5098926;28;19923;-67
2022/09/13 13:24:16;;;;;;;;;;;25.60;49.80;24.10;100483.00;;;;5100111;28;19925;-66
2022/09/13 13:27:02;;;;;;;;;;;25.60;49.80;24.10;100484.00;;;;5094693;28;19912;-67
2022/09/13 13:30:24;;;;;;;;;;;25.60;49.70;24.10;100491.00;;;;5089625;28;19912;-66
2022/09/13 13:33:21;;;;;;;;;;;25.60;49.70;24.10;100496.00;;;;5089892;28;19912;-67
2022/09/13 13:36:21;;;;;;;;;;;25.60;49.70;24.10;100493.00;;;;5081071;28;20404;-67
2022/09/13 13:39:22;;;;;;;;;;;25.60;49.60;24.10;100488.00;;;;5109515;27;19938;-66
2022/09/13 13:42:14;;;;;;;;;;;25.70;49.70;24.10;100496.00;;;;5095268;28;20345;-66
2022/09/13 13:45:00;;;;;;;;;;;25.60;49.60;24.10;100499.00;;;;5100295;28;19967;-67
2022/09/13 13:47:53;;;;;;;;;;;25.60;49.60;24.10;100496.00;;;;5095984;28;20393;-66